createdAt,value
2023-05-25T00:00:10.310Z,77.04
2023-05-25T00:01:10.301Z,76.80
2023-05-25T00:02:10.339Z,76.90
2023-05-25T00:03:10.427Z,76.90
2023-05-25T00:04:10.419Z,76.74
2023-05-25T00:05:10.250Z,76.80
2023-05-25T00:06:10.258Z,77.11
2023-05-25T00:07:10.235Z,76.74
2023-05-25T00:08:10.219Z,76.80
2023-05-25T00:09:10.224Z,76.74
2023-05-25T00:10:10.227Z,76.84
2023-05-25T00:11:10.187Z,76.70
2023-05-25T00:12:10.196Z,76.70
2023-05-25T00:13:10.190Z,76.74
2023-05-25T00:14:10.177Z,76.80
2023-05-25T00:15:10.176Z,76.70
2023-05-25T00:16:10.139Z,76.60
2023-05-25T00:17:10.297Z,76.60
2023-05-25T00:18:10.113Z,76.60
2023-05-25T00:19:10.099Z,76.70
2023-05-25T00:20:10.157Z,76.60
2023-05-25T00:21:10.107Z,76.70
2023-05-25T00:22:10.130Z,76.70
2023-05-25T00:23:10.051Z,76.70
2023-05-25T00:24:10.062Z,76.80
2023-05-25T00:25:10.038Z,76.80
2023-05-25T00:26:10.046Z,76.87
2023-05-25T00:27:10.039Z,76.67
2023-05-25T00:28:10.055Z,76.87
2023-05-25T00:29:09.980Z,76.77
2023-05-25T00:30:10.022Z,76.56
2023-05-25T00:31:10.018Z,76.67
2023-05-25T00:32:09.951Z,76.67
2023-05-25T00:33:10.086Z,76.77
2023-05-25T00:34:09.923Z,76.56
2023-05-25T00:35:09.932Z,76.87
2023-05-25T00:36:09.901Z,76.87
2023-05-25T00:37:09.910Z,76.77
2023-05-25T00:38:09.882Z,76.67
2023-05-25T00:39:09.894Z,76.67
2023-05-25T00:40:09.858Z,76.97
2023-05-25T00:41:09.865Z,76.77
2023-05-25T00:42:09.835Z,76.56
2023-05-25T00:43:09.848Z,76.77
2023-05-25T00:44:09.834Z,76.67
2023-05-25T00:45:09.818Z,76.67
2023-05-25T00:46:09.796Z,76.67
2023-05-25T00:47:09.803Z,76.67
2023-05-25T00:48:09.839Z,76.77
2023-05-25T00:49:09.754Z,76.77
2023-05-25T00:50:09.861Z,76.77
2023-05-25T00:51:09.752Z,76.67
2023-05-25T00:52:09.787Z,76.77
2023-05-25T00:53:09.711Z,76.63
2023-05-25T00:54:09.710Z,76.73
2023-05-25T00:55:09.686Z,76.63
2023-05-25T00:56:09.686Z,76.73
2023-05-25T00:57:09.692Z,76.83
2023-05-25T00:58:09.704Z,76.53
2023-05-25T00:59:09.654Z,76.67
2023-05-25T01:00:09.653Z,76.63
2023-05-25T01:01:09.627Z,76.63
2023-05-25T01:02:09.643Z,76.63
2023-05-25T01:03:11.039Z,76.63
2023-05-25T01:04:09.705Z,76.63
2023-05-25T01:05:09.567Z,76.83
2023-05-25T01:06:09.561Z,77.14
2023-05-25T01:07:09.560Z,76.73
2023-05-25T01:08:09.540Z,76.53
2023-05-25T01:09:09.560Z,76.83
2023-05-25T01:10:09.514Z,76.63
2023-05-25T01:11:09.505Z,76.73
2023-05-25T01:12:09.495Z,76.63
2023-05-25T01:13:09.476Z,76.63
2023-05-25T01:14:09.473Z,76.93
2023-05-25T01:15:09.493Z,76.83
2023-05-25T01:16:09.503Z,76.63
2023-05-25T01:17:09.433Z,76.83
2023-05-25T01:18:09.427Z,76.63
2023-05-25T01:19:09.409Z,76.73
2023-05-25T01:20:11.611Z,76.63
2023-05-25T01:21:09.415Z,76.83
2023-05-25T01:22:09.400Z,76.83
2023-05-25T01:23:09.368Z,77.14
2023-05-25T01:24:09.355Z,76.53
2023-05-25T01:25:09.411Z,76.43
2023-05-25T01:26:09.328Z,76.29
2023-05-25T01:27:09.368Z,76.53
2023-05-25T01:28:09.327Z,76.43
2023-05-25T01:29:09.321Z,75.99
2023-05-25T01:30:09.292Z,75.92
2023-05-25T01:31:09.276Z,75.89
2023-05-25T01:32:09.488Z,76.09
2023-05-25T01:33:09.320Z,76.03
2023-05-25T01:34:09.266Z,76.39
2023-05-25T01:35:09.238Z,76.39
2023-05-25T01:36:09.217Z,76.03
2023-05-25T01:37:09.203Z,75.99
2023-05-25T01:38:09.197Z,76.03
2023-05-25T01:39:09.242Z,75.89
2023-05-25T01:40:09.169Z,76.29
2023-05-25T01:41:09.158Z,76.39
2023-05-25T01:42:09.224Z,76.59
2023-05-25T01:43:09.145Z,76.19
2023-05-25T01:44:09.130Z,76.39
2023-05-25T01:45:09.125Z,76.59
2023-05-25T01:46:09.201Z,77.00
2023-05-25T01:47:09.096Z,76.90
2023-05-25T01:48:09.262Z,77.10
2023-05-25T01:49:09.074Z,76.39
2023-05-25T01:50:09.060Z,77.10
2023-05-25T01:51:09.080Z,77.10
2023-05-25T01:52:09.203Z,76.70
2023-05-25T01:53:09.018Z,76.59
2023-05-25T01:54:09.032Z,76.79
2023-05-25T01:55:08.996Z,76.70
2023-05-25T01:56:09.005Z,76.59
2023-05-25T01:57:09.017Z,76.70
2023-05-25T01:58:08.985Z,77.00
2023-05-25T01:59:08.952Z,76.70
2023-05-25T02:00:08.945Z,77.10
2023-05-25T02:01:08.986Z,76.70
2023-05-25T02:02:08.929Z,77.10
2023-05-25T02:03:09.024Z,76.50
2023-05-25T02:04:08.958Z,76.70
2023-05-25T02:05:08.945Z,76.56
2023-05-25T02:06:08.874Z,76.59
2023-05-25T02:07:08.857Z,76.50
2023-05-25T02:08:08.849Z,76.59
2023-05-25T02:09:08.912Z,76.70
2023-05-25T02:10:08.831Z,76.35
2023-05-25T02:11:08.819Z,76.66
2023-05-25T02:12:08.822Z,76.66
2023-05-25T02:13:08.798Z,77.10
2023-05-25T02:14:08.807Z,76.66
2023-05-25T02:15:08.889Z,76.56
2023-05-25T02:16:08.803Z,76.59
2023-05-25T02:17:08.780Z,77.06
2023-05-25T02:18:08.764Z,76.56
2023-05-25T02:19:08.730Z,76.86
2023-05-25T02:20:08.862Z,76.46
2023-05-25T02:21:08.723Z,76.56
2023-05-25T02:22:08.715Z,76.39
2023-05-25T02:23:08.677Z,76.70
2023-05-25T02:24:08.709Z,76.46
2023-05-25T02:25:08.673Z,76.59
2023-05-25T02:26:08.657Z,76.76
2023-05-25T02:27:08.715Z,76.46
2023-05-25T02:28:08.629Z,76.56
2023-05-25T02:29:08.641Z,76.50
2023-05-25T02:30:08.599Z,76.56
2023-05-25T02:31:08.661Z,76.50
2023-05-25T02:32:08.585Z,76.46
2023-05-25T02:33:08.620Z,76.35
2023-05-25T02:34:08.574Z,76.50
2023-05-25T02:35:08.549Z,76.29
2023-05-25T02:36:08.664Z,76.50
2023-05-25T02:37:08.530Z,76.79
2023-05-25T02:38:08.540Z,76.70
2023-05-25T02:39:08.556Z,76.50
2023-05-25T02:40:08.550Z,76.59
2023-05-25T02:41:08.474Z,76.59
2023-05-25T02:42:08.485Z,76.59
2023-05-25T02:43:08.456Z,76.50
2023-05-25T02:44:08.451Z,76.70
2023-05-25T02:45:08.460Z,76.63
2023-05-25T02:46:08.435Z,76.50
2023-05-25T02:47:08.641Z,76.59
2023-05-25T02:48:08.439Z,76.53
2023-05-25T02:49:08.382Z,76.59
2023-05-25T02:50:08.383Z,76.70
2023-05-25T02:51:08.449Z,76.73
2023-05-25T02:52:08.397Z,76.63
2023-05-25T02:53:08.341Z,76.70
2023-05-25T02:54:08.330Z,76.73
2023-05-25T02:55:08.321Z,76.63
2023-05-25T02:56:08.357Z,76.63
2023-05-25T02:57:08.345Z,76.63
2023-05-25T02:58:08.308Z,76.63
2023-05-25T02:59:08.283Z,76.53
2023-05-25T03:00:08.287Z,76.53
2023-05-25T03:01:08.297Z,76.63
2023-05-25T03:02:08.237Z,76.53
2023-05-25T03:03:08.358Z,76.63
2023-05-25T03:04:08.310Z,76.63
2023-05-25T03:05:08.204Z,76.43
2023-05-25T03:06:08.214Z,76.43
2023-05-25T03:07:08.201Z,76.63
2023-05-25T03:08:08.192Z,76.53
2023-05-25T03:09:08.223Z,76.63
2023-05-25T03:10:08.145Z,76.63
2023-05-25T03:11:08.135Z,76.63
2023-05-25T03:12:08.125Z,76.73
2023-05-25T03:13:08.108Z,76.73
2023-05-25T03:14:08.150Z,76.83
2023-05-25T03:15:08.122Z,76.70
2023-05-25T03:16:08.135Z,76.93
2023-05-25T03:17:08.196Z,76.73
2023-05-25T03:18:08.071Z,77.00
2023-05-25T03:19:08.051Z,76.59
2023-05-25T03:20:08.081Z,76.59
2023-05-25T03:21:08.033Z,76.59
2023-05-25T03:22:08.043Z,76.70
2023-05-25T03:23:07.993Z,76.50
2023-05-25T03:24:08.019Z,76.39
2023-05-25T03:25:07.965Z,76.29
2023-05-25T03:26:07.994Z,75.99
2023-05-25T03:27:07.956Z,76.09
2023-05-25T03:28:07.956Z,75.89
2023-05-25T03:29:07.922Z,75.89
2023-05-25T03:30:07.922Z,75.85
2023-05-25T03:31:07.905Z,75.75
2023-05-25T03:32:08.034Z,75.65
2023-05-25T03:33:07.946Z,75.85
2023-05-25T03:34:07.901Z,75.85
2023-05-25T03:35:07.854Z,76.35
2023-05-25T03:36:07.858Z,75.95
2023-05-25T03:37:07.831Z,75.65
2023-05-25T03:38:07.822Z,75.65
2023-05-25T03:39:07.841Z,75.95
2023-05-25T03:40:07.840Z,75.75
2023-05-25T03:41:07.782Z,75.85
2023-05-25T03:42:07.782Z,76.12
2023-05-25T03:43:07.912Z,75.51
2023-05-25T03:44:07.761Z,75.55
2023-05-25T03:45:07.785Z,75.61
2023-05-25T03:46:07.828Z,75.71
2023-05-25T03:47:07.746Z,75.81
2023-05-25T03:48:07.709Z,75.92
2023-05-25T03:49:07.709Z,75.92
2023-05-25T03:50:07.681Z,75.81
2023-05-25T03:51:07.737Z,75.92
2023-05-25T03:52:07.657Z,75.92
2023-05-25T03:53:07.720Z,75.88
2023-05-25T03:54:07.711Z,75.92
2023-05-25T03:55:07.650Z,75.78
2023-05-25T03:56:07.657Z,76.12
2023-05-25T03:57:08.516Z,76.02
2023-05-25T03:58:07.567Z,75.92
2023-05-25T03:59:07.595Z,75.68
2023-05-25T04:00:07.544Z,75.78
2023-05-25T04:01:07.537Z,75.98
2023-05-25T04:02:07.667Z,75.98
2023-05-25T04:03:07.630Z,75.78
2023-05-25T04:04:07.544Z,75.88
2023-05-25T04:05:07.489Z,75.78
2023-05-25T04:06:07.476Z,75.88
2023-05-25T04:07:07.475Z,75.88
2023-05-25T04:08:07.483Z,75.88
2023-05-25T04:09:07.472Z,75.84
2023-05-25T04:10:07.466Z,75.84
2023-05-25T04:11:07.422Z,75.84
2023-05-25T04:12:07.443Z,75.84
2023-05-25T04:13:07.425Z,75.74
2023-05-25T04:14:07.386Z,75.44
2023-05-25T04:15:07.421Z,75.64
2023-05-25T04:16:08.226Z,75.64
2023-05-25T04:17:07.399Z,75.71
2023-05-25T04:18:07.402Z,75.81
2023-05-25T04:19:07.344Z,75.81
2023-05-25T04:20:07.397Z,75.81
2023-05-25T04:21:07.347Z,75.91
2023-05-25T04:22:07.309Z,75.91
2023-05-25T04:23:07.313Z,75.87
2023-05-25T04:24:07.327Z,75.60
2023-05-25T04:25:07.305Z,75.67
2023-05-25T04:26:07.272Z,75.57
2023-05-25T04:27:07.311Z,75.47
2023-05-25T04:28:07.272Z,75.57
2023-05-25T04:29:07.260Z,75.67
2023-05-25T04:30:07.263Z,75.34
2023-05-25T04:31:07.254Z,75.54
2023-05-25T04:32:07.215Z,75.43
2023-05-25T04:33:07.294Z,75.43
2023-05-25T04:34:07.188Z,75.30
2023-05-25T04:35:07.172Z,75.36
2023-05-25T04:36:07.170Z,74.93
2023-05-25T04:37:07.158Z,74.52
2023-05-25T04:38:07.165Z,75.09
2023-05-25T04:39:07.168Z,74.75
2023-05-25T04:40:07.142Z,74.41
2023-05-25T04:41:07.135Z,74.21
2023-05-25T04:42:07.098Z,73.88
2023-05-25T04:43:07.100Z,74.28
2023-05-25T04:44:10.086Z,73.94
2023-05-25T04:45:07.076Z,74.15
2023-05-25T04:46:07.098Z,73.81
2023-05-25T04:47:07.042Z,74.15
2023-05-25T04:48:07.078Z,73.61
2023-05-25T04:49:07.064Z,73.71
2023-05-25T04:50:07.022Z,73.74
2023-05-25T04:51:07.066Z,73.61
2023-05-25T04:52:07.016Z,73.41
2023-05-25T04:53:07.004Z,73.30
2023-05-25T04:54:06.968Z,73.71
2023-05-25T04:55:06.960Z,73.30
2023-05-25T04:56:06.948Z,73.50
2023-05-25T04:57:06.984Z,73.50
2023-05-25T04:58:07.042Z,73.91
2023-05-25T04:59:06.902Z,73.91
2023-05-25T05:00:06.953Z,74.01
2023-05-25T05:01:06.925Z,74.07
2023-05-25T05:02:06.868Z,74.31
2023-05-25T05:03:06.942Z,73.97
2023-05-25T05:04:06.865Z,74.07
2023-05-25T05:05:06.848Z,73.87
2023-05-25T05:06:06.825Z,73.87
2023-05-25T05:07:06.811Z,74.07
2023-05-25T05:08:06.816Z,73.87
2023-05-25T05:09:06.821Z,74.07
2023-05-25T05:10:06.785Z,73.74
2023-05-25T05:11:06.800Z,73.94
2023-05-25T05:12:06.772Z,74.07
2023-05-25T05:13:06.757Z,73.97
2023-05-25T05:14:06.735Z,74.14
2023-05-25T05:15:06.796Z,73.94
2023-05-25T05:16:06.779Z,73.84
2023-05-25T05:17:06.775Z,73.84
2023-05-25T05:18:06.710Z,74.01
2023-05-25T05:19:06.680Z,73.94
2023-05-25T05:20:06.718Z,73.80
2023-05-25T05:21:06.781Z,74.14
2023-05-25T05:22:06.649Z,74.10
2023-05-25T05:23:06.631Z,73.70
2023-05-25T05:24:06.639Z,73.60
2023-05-25T05:25:06.652Z,73.07
2023-05-25T05:26:06.698Z,73.16
2023-05-25T05:27:06.621Z,73.16
2023-05-25T05:28:06.601Z,73.16
2023-05-25T05:29:06.573Z,73.07
2023-05-25T05:30:06.561Z,73.07
2023-05-25T05:31:06.564Z,73.16
2023-05-25T05:32:06.637Z,73.16
2023-05-25T05:33:06.750Z,73.67
2023-05-25T05:34:06.687Z,73.77
2023-05-25T05:35:06.519Z,73.77
2023-05-25T05:36:06.550Z,73.83
2023-05-25T05:37:06.476Z,73.63
2023-05-25T05:38:06.466Z,73.83
2023-05-25T05:39:06.486Z,73.63
2023-05-25T05:40:06.449Z,73.53
2023-05-25T05:41:06.558Z,73.83
2023-05-25T05:42:06.491Z,73.43
2023-05-25T05:43:06.413Z,73.43
2023-05-25T05:44:06.397Z,73.43
2023-05-25T05:45:06.401Z,73.73
2023-05-25T05:46:06.393Z,73.63
2023-05-25T05:47:06.378Z,73.70
2023-05-25T05:48:06.427Z,73.60
2023-05-25T05:49:06.433Z,73.30
2023-05-25T05:50:06.343Z,73.00
2023-05-25T05:51:06.370Z,73.43
2023-05-25T05:52:06.302Z,73.63
2023-05-25T05:53:06.288Z,73.73
2023-05-25T05:54:06.360Z,73.63
2023-05-25T05:55:06.282Z,73.13
2023-05-25T05:56:06.259Z,73.43
2023-05-25T05:57:06.279Z,74.07
2023-05-25T05:58:06.237Z,74.03
2023-05-25T05:59:06.222Z,73.97
2023-05-25T06:00:06.220Z,73.77
2023-05-25T06:01:06.235Z,73.67
2023-05-25T06:02:06.211Z,74.07
2023-05-25T06:03:06.274Z,74.17
2023-05-25T06:04:06.254Z,74.07
2023-05-25T06:05:06.199Z,73.93
2023-05-25T06:06:06.242Z,73.63
2023-05-25T06:07:06.160Z,73.77
2023-05-25T06:08:06.877Z,73.83
2023-05-25T06:09:06.301Z,73.43
2023-05-25T06:10:06.123Z,73.73
2023-05-25T06:11:06.080Z,73.73
2023-05-25T06:12:06.073Z,73.73
2023-05-25T06:13:06.103Z,73.23
2023-05-25T06:14:06.130Z,73.00
2023-05-25T06:15:06.106Z,73.33
2023-05-25T06:16:06.093Z,73.43
2023-05-25T06:17:06.186Z,73.70
2023-05-25T06:18:06.619Z,73.10
2023-05-25T06:19:06.008Z,72.96
2023-05-25T06:20:06.064Z,72.86
2023-05-25T06:21:05.991Z,72.46
2023-05-25T06:22:06.120Z,72.53
2023-05-25T06:23:05.969Z,72.53
2023-05-25T06:24:06.079Z,72.49
2023-05-25T06:25:05.930Z,72.59
2023-05-25T06:26:05.960Z,72.16
2023-05-25T06:27:06.085Z,71.86
2023-05-25T06:28:05.899Z,71.86
2023-05-25T06:29:05.887Z,72.22
2023-05-25T06:30:05.910Z,72.42
2023-05-25T06:31:05.866Z,72.42
2023-05-25T06:32:05.929Z,72.52
2023-05-25T06:33:05.920Z,72.06
2023-05-25T06:34:05.824Z,72.56
2023-05-25T06:35:07.983Z,72.66
2023-05-25T06:36:05.949Z,72.36
2023-05-25T06:37:05.798Z,72.56
2023-05-25T06:38:05.808Z,72.96
2023-05-25T06:39:05.817Z,72.76
2023-05-25T06:40:05.783Z,72.06
2023-05-25T06:41:05.757Z,72.42
2023-05-25T06:42:05.754Z,72.22
2023-05-25T06:43:05.730Z,72.22
2023-05-25T06:44:05.734Z,72.42
2023-05-25T06:45:05.725Z,72.42
2023-05-25T06:46:06.067Z,72.32
2023-05-25T06:47:05.734Z,72.22
2023-05-25T06:48:05.702Z,72.22
2023-05-25T06:49:05.662Z,72.22
2023-05-25T06:50:05.648Z,72.22
2023-05-25T06:51:05.679Z,72.62
2023-05-25T06:52:05.703Z,72.22
2023-05-25T06:53:05.610Z,72.22
2023-05-25T06:54:05.691Z,72.29
2023-05-25T06:55:05.617Z,72.32
2023-05-25T06:56:05.608Z,72.13
2023-05-25T06:57:05.630Z,72.09
2023-05-25T06:58:05.554Z,72.42
2023-05-25T06:59:05.547Z,72.52
2023-05-25T07:00:05.536Z,72.22
2023-05-25T07:01:05.600Z,72.62
2023-05-25T07:02:05.532Z,72.76
2023-05-25T07:03:06.233Z,72.86
2023-05-25T07:04:05.504Z,72.66
2023-05-25T07:05:05.669Z,73.06
2023-05-25T07:06:05.482Z,72.96
2023-05-25T07:07:05.540Z,72.86
2023-05-25T07:08:05.486Z,72.56
2023-05-25T07:09:05.500Z,72.45
2023-05-25T07:10:05.442Z,72.86
2023-05-25T07:11:05.412Z,72.86
2023-05-25T07:12:05.400Z,72.96
2023-05-25T07:13:05.407Z,72.45
2023-05-25T07:14:05.399Z,72.16
2023-05-25T07:15:05.438Z,72.13
2023-05-25T07:16:05.372Z,72.42
2023-05-25T07:17:05.349Z,72.72
2023-05-25T07:18:05.375Z,72.86
2023-05-25T07:19:05.341Z,72.86
2023-05-25T07:20:05.392Z,72.86
2023-05-25T07:21:05.349Z,72.66
2023-05-25T07:22:05.294Z,72.96
2023-05-25T07:23:05.294Z,72.86
2023-05-25T07:24:05.316Z,72.86
2023-05-25T07:25:05.258Z,72.76
2023-05-25T07:26:05.996Z,72.86
2023-05-25T07:27:05.282Z,73.36
2023-05-25T07:28:05.233Z,73.16
2023-05-25T07:29:05.211Z,72.96
2023-05-25T07:30:05.208Z,73.06
2023-05-25T07:31:05.243Z,73.02
2023-05-25T07:32:05.185Z,72.92
2023-05-25T07:33:05.237Z,73.02
2023-05-25T07:34:05.175Z,72.82
2023-05-25T07:35:05.144Z,72.62
2023-05-25T07:36:05.152Z,72.52
2023-05-25T07:37:05.135Z,72.22
2023-05-25T07:38:05.127Z,72.76
2023-05-25T07:39:05.639Z,72.96
2023-05-25T07:40:05.138Z,72.62
2023-05-25T07:41:05.083Z,72.86
2023-05-25T07:42:05.077Z,73.16
2023-05-25T07:43:06.859Z,72.96
2023-05-25T07:44:05.054Z,73.06
2023-05-25T07:45:05.128Z,73.09
2023-05-25T07:46:05.025Z,73.49
2023-05-25T07:47:05.072Z,73.46
2023-05-25T07:48:05.030Z,73.25
2023-05-25T07:49:05.007Z,72.89
2023-05-25T07:50:04.974Z,72.89
2023-05-25T07:51:05.007Z,73.16
2023-05-25T07:52:04.977Z,73.06
2023-05-25T07:53:04.937Z,72.86
2023-05-25T07:54:04.955Z,72.72
2023-05-25T07:55:04.953Z,72.52
2023-05-25T07:56:04.948Z,72.09
2023-05-25T07:57:04.958Z,72.52
2023-05-25T07:58:04.981Z,72.32
2023-05-25T07:59:05.549Z,72.32
2023-05-25T08:00:04.882Z,72.39
2023-05-25T08:01:05.039Z,72.39
2023-05-25T08:02:04.893Z,72.09
2023-05-25T08:03:05.079Z,72.09
2023-05-25T08:04:04.955Z,72.29
2023-05-25T08:05:04.878Z,72.69
2023-05-25T08:06:04.829Z,72.39
2023-05-25T08:07:04.786Z,72.16
2023-05-25T08:08:04.812Z,72.25
2023-05-25T08:09:04.856Z,72.16
2023-05-25T08:10:04.778Z,71.72
2023-05-25T08:11:05.091Z,71.62
2023-05-25T08:12:24.199Z,71.72
2023-05-25T08:13:05.744Z,71.59
2023-05-25T08:14:04.716Z,71.29
2023-05-25T08:15:04.731Z,71.55
2023-05-25T08:16:04.688Z,70.65
2023-05-25T08:17:04.754Z,70.45
2023-05-25T08:18:04.782Z,70.75
2023-05-25T08:19:04.643Z,71.65
2023-05-25T08:20:04.747Z,71.35
2023-05-25T08:21:04.661Z,71.65
2023-05-25T08:22:04.615Z,71.25
2023-05-25T08:23:04.618Z,70.62
2023-05-25T08:24:04.618Z,70.52
2023-05-25T08:25:04.913Z,70.42
2023-05-25T08:26:14.619Z,70.72
2023-05-25T08:27:05.659Z,71.42
2023-05-25T08:28:04.567Z,71.62
2023-05-25T08:29:04.546Z,71.35
2023-05-25T08:30:04.550Z,71.45
2023-05-25T08:31:05.194Z,71.25
2023-05-25T08:32:04.530Z,71.75
2023-05-25T08:33:04.536Z,71.45
2023-05-25T08:34:04.481Z,71.65
2023-05-25T08:35:04.465Z,71.35
2023-05-25T08:36:04.466Z,71.35
2023-05-25T08:37:04.445Z,71.75
2023-05-25T08:38:04.529Z,71.55
2023-05-25T08:39:04.450Z,71.75
2023-05-25T08:40:04.413Z,71.35
2023-05-25T08:41:04.401Z,71.65
2023-05-25T08:42:04.589Z,71.45
2023-05-25T08:43:04.366Z,71.75
2023-05-25T08:44:04.384Z,71.45
2023-05-25T08:45:04.373Z,71.55
2023-05-25T08:46:04.367Z,71.65
2023-05-25T08:47:04.335Z,71.75
2023-05-25T08:48:04.411Z,71.65
2023-05-25T08:49:04.594Z,71.55
2023-05-25T08:50:04.310Z,71.75
2023-05-25T08:51:04.338Z,71.85
2023-05-25T08:52:06.052Z,71.55
2023-05-25T08:53:05.130Z,71.42
2023-05-25T08:54:05.141Z,71.32
2023-05-25T08:55:04.275Z,71.32
2023-05-25T08:56:04.250Z,71.32
2023-05-25T08:57:04.297Z,71.55
2023-05-25T08:58:04.207Z,71.51
2023-05-25T08:59:06.546Z,71.32
2023-05-25T09:00:04.217Z,71.51
2023-05-25T09:01:04.165Z,71.22
2023-05-25T09:02:04.199Z,70.98
2023-05-25T09:03:04.305Z,70.68
2023-05-25T09:04:04.196Z,70.29
2023-05-25T09:05:04.158Z,70.49
2023-05-25T09:06:04.114Z,70.45
2023-05-25T09:07:10.194Z,70.06
2023-05-25T09:08:05.117Z,70.06
2023-05-25T09:09:04.079Z,71.05
2023-05-25T09:10:04.059Z,70.06
2023-05-25T09:11:04.623Z,70.06
2023-05-25T09:12:04.044Z,69.96
2023-05-25T09:13:16.700Z,70.22
2023-05-25T09:14:05.079Z,70.32
2023-05-25T09:15:04.004Z,69.92
2023-05-25T09:16:04.035Z,71.01
2023-05-25T09:17:04.103Z,70.12
2023-05-25T09:18:05.417Z,71.12
2023-05-25T09:19:03.965Z,70.22
2023-05-25T09:20:04.100Z,71.42
2023-05-25T09:21:04.052Z,70.12
2023-05-25T09:22:14.721Z,70.62
2023-05-25T09:23:04.926Z,70.52
2023-05-25T09:24:04.634Z,70.32
2023-05-25T09:25:03.922Z,70.62
2023-05-25T09:26:05.220Z,70.48
2023-05-25T09:27:03.884Z,70.39
2023-05-25T09:28:21.374Z,70.12
2023-05-25T09:29:04.865Z,71.42
2023-05-25T09:30:03.852Z,70.22
2023-05-25T09:31:03.835Z,70.03
2023-05-25T09:32:04.272Z,70.32
2023-05-25T09:33:03.862Z,70.03
2023-05-25T09:34:03.822Z,70.03
2023-05-25T09:35:03.792Z,70.12
2023-05-25T09:36:03.789Z,71.12
2023-05-25T09:37:04.022Z,70.62
2023-05-25T09:38:04.032Z,70.12
2023-05-25T09:39:04.118Z,70.62
2023-05-25T09:40:03.741Z,70.19
2023-05-25T09:41:03.724Z,71.01
2023-05-25T09:42:04.628Z,71.01
2023-05-25T09:43:03.714Z,71.22
2023-05-25T09:44:10.909Z,70.19
2023-05-25T09:45:04.691Z,70.59
2023-05-25T09:46:03.719Z,71.38
2023-05-25T09:47:03.736Z,70.78
2023-05-25T09:48:03.717Z,69.99
2023-05-25T09:49:03.674Z,69.99
2023-05-25T09:50:03.654Z,70.19
2023-05-25T09:51:03.694Z,70.29
2023-05-25T09:52:03.609Z,70.29
2023-05-25T09:53:03.608Z,69.96
2023-05-25T09:54:03.586Z,70.09
2023-05-25T09:55:03.563Z,70.06
2023-05-25T09:56:04.236Z,69.89
2023-05-25T09:57:04.175Z,69.66
2023-05-25T09:58:04.145Z,69.76
2023-05-25T09:59:03.573Z,69.85
2023-05-25T10:00:03.626Z,69.96
2023-05-25T10:01:03.546Z,69.85
2023-05-25T10:02:03.595Z,69.66
2023-05-25T10:03:03.514Z,69.43
2023-05-25T10:04:05.275Z,69.62
2023-05-25T10:05:03.546Z,69.62
2023-05-25T10:06:03.461Z,69.43
2023-05-25T10:07:03.667Z,69.32
2023-05-25T10:08:03.702Z,69.43
2023-05-25T10:09:04.261Z,69.53
2023-05-25T10:10:04.249Z,69.39
2023-05-25T10:11:03.403Z,69.39
2023-05-25T10:12:04.172Z,69.39
2023-05-25T10:13:03.370Z,69.39
2023-05-25T10:14:03.380Z,69.39
2023-05-25T10:15:03.398Z,69.09
2023-05-25T10:16:03.352Z,69.09
2023-05-25T10:17:03.323Z,69.59
2023-05-25T10:18:03.373Z,69.39
2023-05-25T10:19:03.325Z,69.20
2023-05-25T10:20:03.411Z,68.96
2023-05-25T10:21:03.966Z,68.76
2023-05-25T10:22:04.135Z,68.76
2023-05-25T10:23:03.264Z,68.76
2023-05-25T10:24:03.244Z,68.66
2023-05-25T10:25:03.364Z,68.63
2023-05-25T10:26:03.277Z,68.63
2023-05-25T10:27:10.958Z,68.63
2023-05-25T10:28:04.219Z,68.53
2023-05-25T10:29:03.214Z,68.43
2023-05-25T10:30:03.201Z,68.63
2023-05-25T10:31:03.232Z,68.83
2023-05-25T10:32:03.256Z,68.63
2023-05-25T10:33:03.286Z,68.43
2023-05-25T10:34:03.244Z,68.63
2023-05-25T10:35:03.653Z,68.93
2023-05-25T10:37:04.738Z,69.36
2023-05-25T10:38:03.098Z,69.36
2023-05-25T10:39:03.879Z,69.36
2023-05-25T10:40:03.080Z,69.46
2023-05-25T10:41:03.058Z,69.36
2023-05-25T10:42:03.167Z,69.06
2023-05-25T10:43:03.359Z,69.16
2023-05-25T10:44:03.023Z,69.16
2023-05-25T10:45:03.009Z,69.36
2023-05-25T10:46:03.082Z,69.46
2023-05-25T10:47:03.049Z,69.36
2023-05-25T10:48:03.010Z,69.16
2023-05-25T10:49:03.229Z,69.36
2023-05-25T10:50:03.034Z,69.06
2023-05-25T10:51:03.391Z,69.26
2023-05-25T10:52:03.644Z,68.73
2023-05-25T10:53:02.923Z,68.73
2023-05-25T10:54:02.940Z,68.63
2023-05-25T10:55:02.952Z,68.63
2023-05-25T10:56:03.039Z,68.70
2023-05-25T10:57:02.874Z,68.63
2023-05-25T10:58:02.867Z,68.53
2023-05-25T10:59:03.017Z,68.50
2023-05-25T11:00:03.035Z,68.53
2023-05-25T11:01:03.278Z,68.70
2023-05-25T11:02:03.096Z,68.50
2023-05-25T11:03:05.260Z,68.90
2023-05-25T11:04:02.874Z,68.80
2023-05-25T11:05:02.885Z,68.99
2023-05-25T11:06:02.876Z,68.70
2023-05-25T11:07:02.852Z,68.99
2023-05-25T11:08:02.907Z,68.93
2023-05-25T11:09:02.836Z,68.73
2023-05-25T11:10:02.736Z,68.83
2023-05-25T11:11:02.727Z,68.53
2023-05-25T11:12:03.766Z,68.63
2023-05-25T11:13:02.729Z,68.53
2023-05-25T11:14:02.685Z,68.53
2023-05-25T11:15:02.679Z,68.53
2023-05-25T11:16:02.724Z,68.63
2023-05-25T11:17:02.691Z,68.43
2023-05-25T11:18:02.705Z,68.63
2023-05-25T11:19:02.686Z,68.70
2023-05-25T11:20:02.728Z,68.99
2023-05-25T11:21:02.635Z,68.99
2023-05-25T11:22:02.602Z,69.09
2023-05-25T11:23:03.181Z,68.37
2023-05-25T11:24:02.683Z,68.37
2023-05-25T11:25:02.814Z,67.77
2023-05-25T11:26:02.743Z,68.17
2023-05-25T11:27:02.590Z,67.77
2023-05-25T11:28:02.597Z,68.13
2023-05-25T11:29:02.594Z,67.64
2023-05-25T11:30:02.635Z,68.04
2023-05-25T11:31:02.672Z,67.84
2023-05-25T11:32:02.501Z,67.11
2023-05-25T11:33:02.518Z,67.64
2023-05-25T11:34:02.466Z,67.41
2023-05-25T11:35:02.462Z,67.41
2023-05-25T11:36:02.441Z,67.11
2023-05-25T11:37:02.530Z,67.35
2023-05-25T11:38:02.465Z,67.44
2023-05-25T11:39:06.733Z,67.91
2023-05-25T11:40:03.550Z,67.74
2023-05-25T11:41:02.586Z,67.74
2023-05-25T11:42:02.392Z,67.84
2023-05-25T11:43:02.639Z,68.10
2023-05-25T11:44:02.346Z,67.64
2023-05-25T11:45:02.357Z,67.80
2023-05-25T11:46:02.367Z,67.21
2023-05-25T11:47:02.529Z,67.71
2023-05-25T11:48:02.392Z,67.11
2023-05-25T11:49:02.538Z,67.21
2023-05-25T11:50:02.623Z,67.61
2023-05-25T11:51:02.273Z,67.68
2023-05-25T11:52:02.265Z,67.80
2023-05-25T11:53:02.251Z,67.47
2023-05-25T11:54:02.350Z,67.58
2023-05-25T11:55:02.373Z,67.31
2023-05-25T11:56:08.084Z,67.51
2023-05-25T11:57:03.456Z,67.21
2023-05-25T11:58:02.458Z,67.38
2023-05-25T11:59:02.253Z,67.41
2023-05-25T12:00:02.258Z,67.02
2023-05-25T12:01:02.205Z,67.61
2023-05-25T12:02:02.336Z,67.71
2023-05-25T12:03:02.785Z,67.80
2023-05-25T12:04:02.325Z,67.41
2023-05-25T12:05:02.467Z,67.64
2023-05-25T12:06:02.179Z,67.44
2023-05-25T12:07:02.213Z,67.14
2023-05-25T12:08:02.074Z,67.11
2023-05-25T12:09:02.083Z,67.05
2023-05-25T12:10:02.684Z,67.14
2023-05-25T12:11:02.155Z,67.21
2023-05-25T12:12:02.382Z,67.84
2023-05-25T12:13:02.124Z,67.64
2023-05-25T12:14:02.222Z,67.54
2023-05-25T12:15:02.091Z,67.84
2023-05-25T12:16:02.220Z,67.97
2023-05-25T12:17:02.075Z,67.74
2023-05-25T12:18:02.116Z,67.74
2023-05-25T12:19:02.033Z,68.57
2023-05-25T12:20:02.041Z,67.77
2023-05-25T12:21:02.090Z,67.57
2023-05-25T12:22:02.691Z,67.87
2023-05-25T12:23:02.138Z,68.37
2023-05-25T12:24:01.894Z,68.10
2023-05-25T12:25:02.118Z,67.80
2023-05-25T12:26:01.877Z,67.80
2023-05-25T12:27:02.009Z,67.90
2023-05-25T12:28:02.713Z,68.10
2023-05-25T12:29:01.855Z,68.10
2023-05-25T12:30:01.885Z,67.90
2023-05-25T12:31:01.992Z,68.10
2023-05-25T12:32:01.834Z,67.71
2023-05-25T12:33:02.860Z,67.74
2023-05-25T12:34:01.859Z,68.24
2023-05-25T12:35:01.828Z,67.94
2023-05-25T12:36:01.877Z,68.13
2023-05-25T12:37:02.888Z,68.13
2023-05-25T12:38:01.844Z,68.13
2023-05-25T12:39:01.752Z,68.13
2023-05-25T12:40:01.730Z,68.27
2023-05-25T12:41:01.783Z,68.37
2023-05-25T12:42:01.780Z,68.86
2023-05-25T12:43:01.744Z,68.76
2023-05-25T12:44:01.800Z,68.46
2023-05-25T12:45:01.697Z,68.57
2023-05-25T12:46:01.849Z,68.66
2023-05-25T12:47:01.764Z,68.57
2023-05-25T12:48:02.499Z,68.57
2023-05-25T12:49:01.819Z,68.46
2023-05-25T12:50:01.733Z,68.27
2023-05-25T12:51:01.611Z,68.27
2023-05-25T12:52:02.641Z,68.27
2023-05-25T12:53:01.614Z,68.27